sensor_id;sensor_type;location;lat;lon;timestamp;P1;durP1;ratioP1;P2;durP2;ratioP2
71303;SDS011;59091;47.446;19.148;2024-03-25T00:02:07;5.90;;;3.10;;
71303;SDS011;59091;47.446;19.148;2024-03-25T00:04:32;4.35;;;2.65;;
71303;SDS011;59091;47.446;19.148;2024-03-25T00:06:57;3.47;;;2.72;;
71303;SDS011;59091;47.446;19.148;2024-03-25T00:09:23;5.68;;;2.60;;
71303;SDS011;59091;47.446;19.148;2024-03-25T00:11:49;2.85;;;2.20;;
71303;SDS011;59091;47.446;19.148;2024-03-25T00:14:19;3.47;;;2.38;;
71303;SDS011;59091;47.446;19.148;2024-03-25T00:16:45;2.17;;;1.98;;
71303;SDS011;59091;47.446;19.148;2024-03-25T00:19:11;2.38;;;2.00;;
71303;SDS011;59091;47.446;19.148;2024-03-25T00:21:37;2.03;;;1.83;;
71303;SDS011;59091;47.446;19.148;2024-03-25T00:24:02;2.15;;;1.95;;
71303;SDS011;59091;47.446;19.148;2024-03-25T00:26:28;2.33;;;1.90;;
71303;SDS011;59091;47.446;19.148;2024-03-25T00:28:53;4.75;;;2.15;;
71303;SDS011;59091;47.446;19.148;2024-03-25T00:31:19;3.47;;;2.20;;
71303;SDS011;59091;47.446;19.148;2024-03-25T00:33:44;3.03;;;2.08;;
71303;SDS011;59091;47.446;19.148;2024-03-25T00:36:10;3.05;;;1.90;;
71303;SDS011;59091;47.446;19.148;2024-03-25T00:38:35;2.55;;;2.17;;
71303;SDS011;59091;47.446;19.148;2024-03-25T00:41:01;4.07;;;2.10;;
71303;SDS011;59091;47.446;19.148;2024-03-25T00:43:27;2.38;;;2.13;;
71303;SDS011;59091;47.446;19.148;2024-03-25T00:45:53;2.90;;;2.10;;
71303;SDS011;59091;47.446;19.148;2024-03-25T00:48:18;2.60;;;2.17;;
71303;SDS011;59091;47.446;19.148;2024-03-25T00:50:43;3.28;;;2.10;;
71303;SDS011;59091;47.446;19.148;2024-03-25T00:53:09;3.00;;;2.05;;
71303;SDS011;59091;47.446;19.148;2024-03-25T00:55:34;2.83;;;2.20;;
71303;SDS011;59091;47.446;19.148;2024-03-25T00:58:01;4.03;;;2.33;;
71303;SDS011;59091;47.446;19.148;2024-03-25T01:00:27;2.58;;;2.20;;
71303;SDS011;59091;47.446;19.148;2024-03-25T01:02:52;3.03;;;2.40;;
71303;SDS011;59091;47.446;19.148;2024-03-25T01:05:18;3.83;;;2.50;;
71303;SDS011;59091;47.446;19.148;2024-03-25T01:07:43;2.50;;;2.30;;
71303;SDS011;59091;47.446;19.148;2024-03-25T01:10:09;3.58;;;2.30;;
71303;SDS011;59091;47.446;19.148;2024-03-25T01:12:34;3.30;;;2.30;;
71303;SDS011;59091;47.446;19.148;2024-03-25T01:15:00;3.92;;;2.28;;
71303;SDS011;59091;47.446;19.148;2024-03-25T01:17:28;2.88;;;2.60;;
71303;SDS011;59091;47.446;19.148;2024-03-25T01:19:53;3.45;;;2.45;;
71303;SDS011;59091;47.446;19.148;2024-03-25T01:22:18;3.22;;;2.58;;
71303;SDS011;59091;47.446;19.148;2024-03-25T01:24:44;2.35;;;2.08;;
71303;SDS011;59091;47.446;19.148;2024-03-25T01:27:09;2.78;;;2.28;;
71303;SDS011;59091;47.446;19.148;2024-03-25T01:29:35;2.80;;;2.03;;
71303;SDS011;59091;47.446;19.148;2024-03-25T01:32:00;4.65;;;2.70;;
71303;SDS011;59091;47.446;19.148;2024-03-25T01:34:27;3.15;;;2.13;;
71303;SDS011;59091;47.446;19.148;2024-03-25T01:36:53;2.60;;;1.92;;
71303;SDS011;59091;47.446;19.148;2024-03-25T01:39:18;2.13;;;1.92;;
71303;SDS011;59091;47.446;19.148;2024-03-25T01:41:44;3.47;;;2.28;;
71303;SDS011;59091;47.446;19.148;2024-03-25T01:44:10;2.65;;;1.90;;
71303;SDS011;59091;47.446;19.148;2024-03-25T01:46:36;2.33;;;2.10;;
71303;SDS011;59091;47.446;19.148;2024-03-25T01:49:01;3.13;;;2.00;;
71303;SDS011;59091;47.446;19.148;2024-03-25T01:51:27;2.38;;;2.17;;
71303;SDS011;59091;47.446;19.148;2024-03-25T01:53:53;2.28;;;2.10;;
71303;SDS011;59091;47.446;19.148;2024-03-25T01:56:20;3.72;;;2.30;;
71303;SDS011;59091;47.446;19.148;2024-03-25T01:58:48;2.63;;;2.10;;
71303;SDS011;59091;47.446;19.148;2024-03-25T02:01:14;3.72;;;2.25;;
71303;SDS011;59091;47.446;19.148;2024-03-25T02:03:40;3.63;;;2.10;;
71303;SDS011;59091;47.446;19.148;2024-03-25T02:06:09;2.38;;;2.05;;
71303;SDS011;59091;47.446;19.148;2024-03-25T02:08:40;2.72;;;2.15;;
71303;SDS011;59091;47.446;19.148;2024-03-25T02:11:06;3.15;;;2.20;;
71303;SDS011;59091;47.446;19.148;2024-03-25T02:13:32;2.47;;;2.25;;
71303;SDS011;59091;47.446;19.148;2024-03-25T02:16:00;4.60;;;2.10;;
71303;SDS011;59091;47.446;19.148;2024-03-25T02:18:25;2.30;;;2.10;;
71303;SDS011;59091;47.446;19.148;2024-03-25T02:20:51;2.58;;;2.03;;
71303;SDS011;59091;47.446;19.148;2024-03-25T02:23:16;5.70;;;2.45;;
71303;SDS011;59091;47.446;19.148;2024-03-25T02:25:42;2.05;;;1.92;;
71303;SDS011;59091;47.446;19.148;2024-03-25T02:28:08;2.55;;;2.22;;
71303;SDS011;59091;47.446;19.148;2024-03-25T02:30:34;2.75;;;2.40;;
71303;SDS011;59091;47.446;19.148;2024-03-25T02:32:59;3.75;;;1.98;;
71303;SDS011;59091;47.446;19.148;2024-03-25T02:35:25;2.38;;;2.10;;
71303;SDS011;59091;47.446;19.148;2024-03-25T02:37:52;3.17;;;2.53;;
71303;SDS011;59091;47.446;19.148;2024-03-25T02:40:18;3.40;;;2.42;;
71303;SDS011;59091;47.446;19.148;2024-03-25T02:42:44;2.40;;;2.20;;
71303;SDS011;59091;47.446;19.148;2024-03-25T02:45:10;2.95;;;2.40;;
71303;SDS011;59091;47.446;19.148;2024-03-25T02:47:35;5.05;;;2.30;;
71303;SDS011;59091;47.446;19.148;2024-03-25T02:50:01;2.80;;;2.38;;
71303;SDS011;59091;47.446;19.148;2024-03-25T02:52:27;4.15;;;2.50;;
71303;SDS011;59091;47.446;19.148;2024-03-25T02:54:52;3.28;;;2.40;;
71303;SDS011;59091;47.446;19.148;2024-03-25T02:57:19;4.20;;;2.30;;
71303;SDS011;59091;47.446;19.148;2024-03-25T02:59:45;3.17;;;2.40;;
71303;SDS011;59091;47.446;19.148;2024-03-25T03:02:10;4.68;;;2.67;;
71303;SDS011;59091;47.446;19.148;2024-03-25T03:04:35;2.55;;;2.35;;
71303;SDS011;59091;47.446;19.148;2024-03-25T03:07:01;6.47;;;2.42;;
71303;SDS011;59091;47.446;19.148;2024-03-25T03:09:26;3.90;;;2.55;;
71303;SDS011;59091;47.446;19.148;2024-03-25T03:11:52;3.63;;;2.83;;
71303;SDS011;59091;47.446;19.148;2024-03-25T03:14:17;2.97;;;2.50;;
71303;SDS011;59091;47.446;19.148;2024-03-25T03:16:43;3.55;;;2.65;;
71303;SDS011;59091;47.446;19.148;2024-03-25T03:19:08;3.83;;;2.50;;
71303;SDS011;59091;47.446;19.148;2024-03-25T03:21:33;2.70;;;2.42;;
71303;SDS011;59091;47.446;19.148;2024-03-25T03:23:59;3.70;;;2.13;;
71303;SDS011;59091;47.446;19.148;2024-03-25T03:26:24;3.15;;;2.40;;
71303;SDS011;59091;47.446;19.148;2024-03-25T03:28:56;2.80;;;2.10;;
71303;SDS011;59091;47.446;19.148;2024-03-25T03:31:21;2.67;;;2.47;;
71303;SDS011;59091;47.446;19.148;2024-03-25T03:33:47;2.38;;;2.17;;
71303;SDS011;59091;47.446;19.148;2024-03-25T03:36:17;4.10;;;2.60;;
71303;SDS011;59091;47.446;19.148;2024-03-25T03:38:44;2.88;;;2.15;;
71303;SDS011;59091;47.446;19.148;2024-03-25T03:41:09;4.57;;;2.63;;
71303;SDS011;59091;47.446;19.148;2024-03-25T03:43:35;2.78;;;2.42;;
71303;SDS011;59091;47.446;19.148;2024-03-25T03:46:00;4.13;;;2.35;;
71303;SDS011;59091;47.446;19.148;2024-03-25T03:48:27;2.85;;;2.42;;
71303;SDS011;59091;47.446;19.148;2024-03-25T03:50:52;3.45;;;2.50;;
71303;SDS011;59091;47.446;19.148;2024-03-25T03:53:17;3.92;;;2.70;;
71303;SDS011;59091;47.446;19.148;2024-03-25T03:55:52;7.53;;;2.50;;
71303;SDS011;59091;47.446;19.148;2024-03-25T03:58:22;4.22;;;2.47;;
71303;SDS011;59091;47.446;19.148;2024-03-25T04:00:48;4.32;;;2.50;;
71303;SDS011;59091;47.446;19.148;2024-03-25T04:03:14;3.05;;;2.60;;
71303;SDS011;59091;47.446;19.148;2024-03-25T04:05:39;3.30;;;2.50;;
71303;SDS011;59091;47.446;19.148;2024-03-25T04:08:05;3.22;;;2.38;;
71303;SDS011;59091;47.446;19.148;2024-03-25T04:10:30;4.63;;;2.80;;
71303;SDS011;59091;47.446;19.148;2024-03-25T04:12:56;5.90;;;2.42;;
71303;SDS011;59091;47.446;19.148;2024-03-25T04:15:21;3.08;;;2.25;;
71303;SDS011;59091;47.446;19.148;2024-03-25T04:17:47;4.65;;;2.50;;
71303;SDS011;59091;47.446;19.148;2024-03-25T04:20:14;2.88;;;2.05;;
71303;SDS011;59091;47.446;19.148;2024-03-25T04:22:43;3.22;;;2.45;;
71303;SDS011;59091;47.446;19.148;2024-03-25T04:25:09;3.03;;;2.70;;
71303;SDS011;59091;47.446;19.148;2024-03-25T04:27:42;5.20;;;2.95;;
71303;SDS011;59091;47.446;19.148;2024-03-25T04:30:08;4.20;;;2.60;;
71303;SDS011;59091;47.446;19.148;2024-03-25T04:32:35;7.18;;;2.55;;
71303;SDS011;59091;47.446;19.148;2024-03-25T04:35:01;2.63;;;1.95;;
71303;SDS011;59091;47.446;19.148;2024-03-25T04:37:28;5.03;;;1.98;;
71303;SDS011;59091;47.446;19.148;2024-03-25T04:39:54;1.83;;;1.70;;
71303;SDS011;59091;47.446;19.148;2024-03-25T04:42:20;1.50;;;1.40;;
71303;SDS011;59091;47.446;19.148;2024-03-25T04:44:46;3.53;;;2.33;;
71303;SDS011;59091;47.446;19.148;2024-03-25T04:47:11;2.55;;;1.92;;
71303;SDS011;59091;47.446;19.148;2024-03-25T04:49:37;3.60;;;1.95;;
71303;SDS011;59091;47.446;19.148;2024-03-25T04:52:03;2.10;;;1.90;;
71303;SDS011;59091;47.446;19.148;2024-03-25T04:54:29;1.83;;;1.70;;
71303;SDS011;59091;47.446;19.148;2024-03-25T04:56:55;3.92;;;1.80;;
71303;SDS011;59091;47.446;19.148;2024-03-25T04:59:21;2.38;;;1.98;;
71303;SDS011;59091;47.446;19.148;2024-03-25T05:01:46;2.70;;;1.80;;
71303;SDS011;59091;47.446;19.148;2024-03-25T05:04:11;2.05;;;1.85;;
71303;SDS011;59091;47.446;19.148;2024-03-25T05:06:37;4.15;;;1.77;;
71303;SDS011;59091;47.446;19.148;2024-03-25T05:09:02;3.92;;;1.98;;
71303;SDS011;59091;47.446;19.148;2024-03-25T05:11:28;2.33;;;1.73;;
71303;SDS011;59091;47.446;19.148;2024-03-25T05:13:53;5.63;;;1.67;;
71303;SDS011;59091;47.446;19.148;2024-03-25T05:16:19;5.68;;;2.10;;
71303;SDS011;59091;47.446;19.148;2024-03-25T05:18:44;4.57;;;1.70;;
71303;SDS011;59091;47.446;19.148;2024-03-25T05:21:09;3.03;;;1.83;;
71303;SDS011;59091;47.446;19.148;2024-03-25T05:23:35;4.55;;;1.80;;
71303;SDS011;59091;47.446;19.148;2024-03-25T05:26:00;2.22;;;1.65;;
71303;SDS011;59091;47.446;19.148;2024-03-25T05:28:26;2.28;;;1.60;;
71303;SDS011;59091;47.446;19.148;2024-03-25T05:30:51;5.72;;;1.65;;
71303;SDS011;59091;47.446;19.148;2024-03-25T05:33:16;1.73;;;1.50;;
71303;SDS011;59091;47.446;19.148;2024-03-25T05:35:42;4.32;;;2.10;;
71303;SDS011;59091;47.446;19.148;2024-03-25T05:38:07;3.97;;;1.90;;
71303;SDS011;59091;47.446;19.148;2024-03-25T05:40:33;3.15;;;1.90;;
71303;SDS011;59091;47.446;19.148;2024-03-25T05:42:58;3.13;;;1.88;;
71303;SDS011;59091;47.446;19.148;2024-03-25T05:45:24;2.00;;;1.80;;
71303;SDS011;59091;47.446;19.148;2024-03-25T05:47:52;2.78;;;1.85;;
71303;SDS011;59091;47.446;19.148;2024-03-25T05:50:18;7.25;;;2.00;;
71303;SDS011;59091;47.446;19.148;2024-03-25T05:52:43;2.60;;;2.10;;
71303;SDS011;59091;47.446;19.148;2024-03-25T05:55:09;4.20;;;2.42;;
71303;SDS011;59091;47.446;19.148;2024-03-25T05:57:37;4.10;;;1.90;;
71303;SDS011;59091;47.446;19.148;2024-03-25T06:00:03;3.05;;;2.08;;
71303;SDS011;59091;47.446;19.148;2024-03-25T06:02:29;2.67;;;1.95;;
71303;SDS011;59091;47.446;19.148;2024-03-25T06:04:55;4.68;;;2.08;;
71303;SDS011;59091;47.446;19.148;2024-03-25T06:07:21;2.25;;;2.05;;
71303;SDS011;59091;47.446;19.148;2024-03-25T06:09:47;9.93;;;2.20;;
71303;SDS011;59091;47.446;19.148;2024-03-25T06:12:13;3.45;;;2.15;;
71303;SDS011;59091;47.446;19.148;2024-03-25T06:14:38;3.88;;;1.80;;
71303;SDS011;59091;47.446;19.148;2024-03-25T06:17:04;3.80;;;1.90;;
71303;SDS011;59091;47.446;19.148;2024-03-25T06:19:29;2.67;;;1.90;;
71303;SDS011;59091;47.446;19.148;2024-03-25T06:21:55;1.98;;;1.75;;
71303;SDS011;59091;47.446;19.148;2024-03-25T06:24:20;4.20;;;1.98;;
71303;SDS011;59091;47.446;19.148;2024-03-25T06:26:46;2.60;;;2.22;;
71303;SDS011;59091;47.446;19.148;2024-03-25T06:29:11;3.08;;;2.00;;
71303;SDS011;59091;47.446;19.148;2024-03-25T06:31:36;2.55;;;1.63;;
71303;SDS011;59091;47.446;19.148;2024-03-25T06:34:21;1.60;;;1.50;;
71303;SDS011;59091;47.446;19.148;2024-03-25T06:36:47;2.00;;;1.65;;
71303;SDS011;59091;47.446;19.148;2024-03-25T06:39:13;3.75;;;1.77;;
71303;SDS011;59091;47.446;19.148;2024-03-25T06:41:39;3.15;;;2.00;;
71303;SDS011;59091;47.446;19.148;2024-03-25T06:44:05;5.07;;;1.77;;
71303;SDS011;59091;47.446;19.148;2024-03-25T06:46:30;3.92;;;1.92;;
71303;SDS011;59091;47.446;19.148;2024-03-25T06:48:56;1.90;;;1.80;;
71303;SDS011;59091;47.446;19.148;2024-03-25T06:51:21;2.15;;;1.77;;
71303;SDS011;59091;47.446;19.148;2024-03-25T06:53:47;4.70;;;1.88;;
71303;SDS011;59091;47.446;19.148;2024-03-25T06:56:12;2.03;;;1.67;;
71303;SDS011;59091;47.446;19.148;2024-03-25T06:58:38;2.10;;;1.70;;
71303;SDS011;59091;47.446;19.148;2024-03-25T07:01:04;2.00;;;1.60;;
71303;SDS011;59091;47.446;19.148;2024-03-25T07:03:32;2.05;;;1.85;;
71303;SDS011;59091;47.446;19.148;2024-03-25T07:05:58;3.35;;;2.00;;
71303;SDS011;59091;47.446;19.148;2024-03-25T07:08:25;3.20;;;2.10;;
71303;SDS011;59091;47.446;19.148;2024-03-25T07:10:51;3.22;;;2.25;;
71303;SDS011;59091;47.446;19.148;2024-03-25T07:13:17;2.70;;;2.10;;
71303;SDS011;59091;47.446;19.148;2024-03-25T07:15:43;3.08;;;1.80;;
71303;SDS011;59091;47.446;19.148;2024-03-25T07:18:09;4.45;;;1.67;;
71303;SDS011;59091;47.446;19.148;2024-03-25T07:20:36;2.45;;;1.85;;
71303;SDS011;59091;47.446;19.148;2024-03-25T07:23:01;4.05;;;1.80;;
71303;SDS011;59091;47.446;19.148;2024-03-25T07:25:28;2.72;;;1.60;;
71303;SDS011;59091;47.446;19.148;2024-03-25T07:27:54;2.35;;;1.60;;
71303;SDS011;59091;47.446;19.148;2024-03-25T07:30:20;1.85;;;1.70;;
71303;SDS011;59091;47.446;19.148;2024-03-25T07:32:47;2.53;;;2.20;;
71303;SDS011;59091;47.446;19.148;2024-03-25T07:35:13;1.85;;;1.75;;
71303;SDS011;59091;47.446;19.148;2024-03-25T07:37:41;3.70;;;2.05;;
71303;SDS011;59091;47.446;19.148;2024-03-25T07:40:08;1.80;;;1.70;;
71303;SDS011;59091;47.446;19.148;2024-03-25T07:42:35;2.15;;;1.98;;
71303;SDS011;59091;47.446;19.148;2024-03-25T07:45:01;3.40;;;1.50;;
71303;SDS011;59091;47.446;19.148;2024-03-25T07:47:26;4.43;;;1.65;;
71303;SDS011;59091;47.446;19.148;2024-03-25T07:49:52;2.22;;;1.75;;
71303;SDS011;59091;47.446;19.148;2024-03-25T07:52:17;1.92;;;1.67;;
71303;SDS011;59091;47.446;19.148;2024-03-25T07:54:43;3.50;;;1.60;;
71303;SDS011;59091;47.446;19.148;2024-03-25T07:57:09;1.98;;;1.73;;
71303;SDS011;59091;47.446;19.148;2024-03-25T07:59:34;3.25;;;1.90;;
71303;SDS011;59091;47.446;19.148;2024-03-25T08:02:00;1.63;;;1.52;;
71303;SDS011;59091;47.446;19.148;2024-03-25T08:04:25;1.73;;;1.60;;
71303;SDS011;59091;47.446;19.148;2024-03-25T08:06:51;2.15;;;1.65;;
71303;SDS011;59091;47.446;19.148;2024-03-25T08:09:16;1.92;;;1.70;;
71303;SDS011;59091;47.446;19.148;2024-03-25T08:11:42;1.75;;;1.65;;
71303;SDS011;59091;47.446;19.148;2024-03-25T08:14:11;2.28;;;1.70;;
71303;SDS011;59091;47.446;19.148;2024-03-25T08:16:37;5.40;;;2.17;;
71303;SDS011;59091;47.446;19.148;2024-03-25T08:19:03;3.17;;;1.98;;
71303;SDS011;59091;47.446;19.148;2024-03-25T08:21:29;2.55;;;2.00;;
71303;SDS011;59091;47.446;19.148;2024-03-25T08:23:54;2.42;;;1.90;;
71303;SDS011;59091;47.446;19.148;2024-03-25T08:26:19;2.45;;;1.98;;
71303;SDS011;59091;47.446;19.148;2024-03-25T08:28:45;4.43;;;1.80;;
71303;SDS011;59091;47.446;19.148;2024-03-25T08:31:10;2.08;;;1.83;;
71303;SDS011;59091;47.446;19.148;2024-03-25T08:33:36;1.80;;;1.70;;
71303;SDS011;59091;47.446;19.148;2024-03-25T08:36:01;4.63;;;1.98;;
71303;SDS011;59091;47.446;19.148;2024-03-25T08:38:28;2.42;;;1.80;;
71303;SDS011;59091;47.446;19.148;2024-03-25T08:40:53;2.83;;;1.98;;
71303;SDS011;59091;47.446;19.148;2024-03-25T08:43:19;2.92;;;1.77;;
71303;SDS011;59091;47.446;19.148;2024-03-25T08:45:44;1.75;;;1.65;;
71303;SDS011;59091;47.446;19.148;2024-03-25T08:48:11;1.65;;;1.55;;
71303;SDS011;59091;47.446;19.148;2024-03-25T08:50:36;2.97;;;2.00;;
71303;SDS011;59091;47.446;19.148;2024-03-25T08:53:02;2.25;;;1.70;;
71303;SDS011;59091;47.446;19.148;2024-03-25T08:55:28;3.42;;;1.80;;
71303;SDS011;59091;47.446;19.148;2024-03-25T08:57:54;2.20;;;1.90;;
71303;SDS011;59091;47.446;19.148;2024-03-25T09:00:19;1.80;;;1.70;;
71303;SDS011;59091;47.446;19.148;2024-03-25T09:02:45;4.25;;;1.90;;
71303;SDS011;59091;47.446;19.148;2024-03-25T09:05:11;2.17;;;1.98;;
71303;SDS011;59091;47.446;19.148;2024-03-25T09:07:38;2.40;;;1.70;;
71303;SDS011;59091;47.446;19.148;2024-03-25T09:10:04;2.55;;;1.90;;
71303;SDS011;59091;47.446;19.148;2024-03-25T09:12:48;3.60;;;1.67;;
71303;SDS011;59091;47.446;19.148;2024-03-25T09:15:14;1.80;;;1.67;;
71303;SDS011;59091;47.446;19.148;2024-03-25T09:17:39;2.85;;;1.60;;
71303;SDS011;59091;47.446;19.148;2024-03-25T09:20:05;2.53;;;1.92;;
71303;SDS011;59091;47.446;19.148;2024-03-25T09:22:45;4.57;;;1.92;;
71303;SDS011;59091;47.446;19.148;2024-03-25T09:25:21;2.53;;;1.60;;
71303;SDS011;59091;47.446;19.148;2024-03-25T09:27:49;2.60;;;1.42;;
71303;SDS011;59091;47.446;19.148;2024-03-25T09:30:16;2.28;;;1.60;;
71303;SDS011;59091;47.446;19.148;2024-03-25T09:32:43;1.83;;;1.60;;
71303;SDS011;59091;47.446;19.148;2024-03-25T09:35:09;5.97;;;1.80;;
71303;SDS011;59091;47.446;19.148;2024-03-25T09:37:35;1.70;;;1.60;;
71303;SDS011;59091;47.446;19.148;2024-03-25T09:40:01;2.90;;;1.67;;
71303;SDS011;59091;47.446;19.148;2024-03-25T09:42:40;3.63;;;1.65;;
71303;SDS011;59091;47.446;19.148;2024-03-25T09:45:11;4.50;;;1.67;;
71303;SDS011;59091;47.446;19.148;2024-03-25T09:47:41;4.90;;;1.80;;
71303;SDS011;59091;47.446;19.148;2024-03-25T09:50:13;1.55;;;1.45;;
71303;SDS011;59091;47.446;19.148;2024-03-25T09:52:44;6.22;;;1.92;;
71303;SDS011;59091;47.446;19.148;2024-03-25T09:55:13;2.88;;;2.03;;
71303;SDS011;59091;47.446;19.148;2024-03-25T09:57:40;2.67;;;1.80;;
71303;SDS011;59091;47.446;19.148;2024-03-25T10:00:07;2.92;;;1.67;;
71303;SDS011;59091;47.446;19.148;2024-03-25T10:02:42;3.15;;;1.70;;
71303;SDS011;59091;47.446;19.148;2024-03-25T10:05:08;3.05;;;1.88;;
71303;SDS011;59091;47.446;19.148;2024-03-25T10:07:34;2.20;;;2.00;;
71303;SDS011;59091;47.446;19.148;2024-03-25T10:09:59;4.10;;;2.20;;
71303;SDS011;59091;47.446;19.148;2024-03-25T10:12:31;2.42;;;2.20;;
71303;SDS011;59091;47.446;19.148;2024-03-25T10:14:57;2.50;;;2.10;;
71303;SDS011;59091;47.446;19.148;2024-03-25T10:17:23;4.22;;;2.33;;
71303;SDS011;59091;47.446;19.148;2024-03-25T10:19:49;4.63;;;2.67;;
71303;SDS011;59091;47.446;19.148;2024-03-25T10:22:14;8.02;;;2.92;;
71303;SDS011;59091;47.446;19.148;2024-03-25T10:24:40;2.88;;;2.40;;
71303;SDS011;59091;47.446;19.148;2024-03-25T10:27:10;2.40;;;1.92;;
71303;SDS011;59091;47.446;19.148;2024-03-25T10:29:42;3.20;;;1.85;;
71303;SDS011;59091;47.446;19.148;2024-03-25T10:32:07;1.70;;;1.60;;
71303;SDS011;59091;47.446;19.148;2024-03-25T10:34:33;2.08;;;1.50;;
71303;SDS011;59091;47.446;19.148;2024-03-25T10:36:58;1.98;;;1.65;;
71303;SDS011;59091;47.446;19.148;2024-03-25T10:39:26;2.22;;;1.50;;
71303;SDS011;59091;47.446;19.148;2024-03-25T10:41:55;1.52;;;1.40;;
71303;SDS011;59091;47.446;19.148;2024-03-25T10:44:22;1.65;;;1.55;;
71303;SDS011;59091;47.446;19.148;2024-03-25T10:46:53;3.22;;;1.70;;
71303;SDS011;59091;47.446;19.148;2024-03-25T10:52:00;2.05;;;1.65;;
71303;SDS011;59091;47.446;19.148;2024-03-25T10:54:29;1.92;;;1.70;;
71303;SDS011;59091;47.446;19.148;2024-03-25T10:56:57;1.60;;;1.50;;
71303;SDS011;59091;47.446;19.148;2024-03-25T10:59:24;2.33;;;1.70;;
71303;SDS011;59091;47.446;19.148;2024-03-25T11:01:52;1.95;;;1.30;;
71303;SDS011;59091;47.446;19.148;2024-03-25T11:04:18;1.80;;;1.60;;
71303;SDS011;59091;47.446;19.148;2024-03-25T11:06:45;1.60;;;1.50;;
71303;SDS011;59091;47.446;19.148;2024-03-25T11:09:11;3.33;;;1.98;;
71303;SDS011;59091;47.446;19.148;2024-03-25T11:11:50;1.40;;;1.30;;
71303;SDS011;59091;47.446;19.148;2024-03-25T11:14:17;4.13;;;1.60;;
71303;SDS011;59091;47.446;19.148;2024-03-25T11:16:43;4.95;;;1.85;;
71303;SDS011;59091;47.446;19.148;2024-03-25T11:19:10;2.17;;;1.80;;
71303;SDS011;59091;47.446;19.148;2024-03-25T11:21:36;4.88;;;1.67;;
71303;SDS011;59091;47.446;19.148;2024-03-25T11:24:08;3.50;;;1.73;;
71303;SDS011;59091;47.446;19.148;2024-03-25T11:26:34;1.70;;;1.60;;
71303;SDS011;59091;47.446;19.148;2024-03-25T11:29:02;4.00;;;1.65;;
71303;SDS011;59091;47.446;19.148;2024-03-25T11:31:27;3.17;;;1.50;;
71303;SDS011;59091;47.446;19.148;2024-03-25T11:33:54;3.88;;;1.92;;
71303;SDS011;59091;47.446;19.148;2024-03-25T11:36:20;4.00;;;1.38;;
71303;SDS011;59091;47.446;19.148;2024-03-25T11:39:00;1.80;;;1.40;;
71303;SDS011;59091;47.446;19.148;2024-03-25T11:41:29;2.42;;;1.50;;
71303;SDS011;59091;47.446;19.148;2024-03-25T11:43:55;2.83;;;2.08;;
71303;SDS011;59091;47.446;19.148;2024-03-25T11:46:24;4.43;;;1.65;;
71303;SDS011;59091;47.446;19.148;2024-03-25T11:48:50;3.70;;;1.65;;
71303;SDS011;59091;47.446;19.148;2024-03-25T11:51:19;2.33;;;1.48;;
71303;SDS011;59091;47.446;19.148;2024-03-25T11:53:45;3.47;;;1.55;;
71303;SDS011;59091;47.446;19.148;2024-03-25T11:56:13;1.13;;;1.10;;
71303;SDS011;59091;47.446;19.148;2024-03-25T11:58:39;1.42;;;1.27;;
71303;SDS011;59091;47.446;19.148;2024-03-25T12:01:05;1.20;;;1.20;;
71303;SDS011;59091;47.446;19.148;2024-03-25T12:03:30;1.40;;;1.30;;
71303;SDS011;59091;47.446;19.148;2024-03-25T12:05:58;1.10;;;1.10;;
71303;SDS011;59091;47.446;19.148;2024-03-25T12:08:23;1.48;;;1.35;;
71303;SDS011;59091;47.446;19.148;2024-03-25T12:10:53;4.05;;;1.50;;
71303;SDS011;59091;47.446;19.148;2024-03-25T12:13:40;1.73;;;1.63;;
71303;SDS011;59091;47.446;19.148;2024-03-25T12:16:06;1.88;;;1.77;;
71303;SDS011;59091;47.446;19.148;2024-03-25T12:18:35;2.35;;;2.00;;
71303;SDS011;59091;47.446;19.148;2024-03-25T12:21:02;4.65;;;2.00;;
71303;SDS011;59091;47.446;19.148;2024-03-25T12:23:30;2.58;;;2.08;;
71303;SDS011;59091;47.446;19.148;2024-03-25T12:25:58;3.63;;;1.95;;
71303;SDS011;59091;47.446;19.148;2024-03-25T12:28:24;6.03;;;1.90;;
71303;SDS011;59091;47.446;19.148;2024-03-25T12:30:53;3.33;;;1.83;;
71303;SDS011;59091;47.446;19.148;2024-03-25T12:33:21;3.28;;;1.80;;
71303;SDS011;59091;47.446;19.148;2024-03-25T12:35:48;2.58;;;2.00;;
71303;SDS011;59091;47.446;19.148;2024-03-25T12:38:24;3.05;;;2.15;;
71303;SDS011;59091;47.446;19.148;2024-03-25T12:41:03;3.70;;;2.13;;
71303;SDS011;59091;47.446;19.148;2024-03-25T12:43:32;2.40;;;2.20;;
71303;SDS011;59091;47.446;19.148;2024-03-25T12:45:59;2.50;;;2.30;;
71303;SDS011;59091;47.446;19.148;2024-03-25T12:48:25;5.65;;;2.05;;
71303;SDS011;59091;47.446;19.148;2024-03-25T12:50:50;4.22;;;2.03;;
71303;SDS011;59091;47.446;19.148;2024-03-25T12:53:17;2.58;;;1.90;;
71303;SDS011;59091;47.446;19.148;2024-03-25T12:55:44;2.85;;;1.92;;
71303;SDS011;59091;47.446;19.148;2024-03-25T12:58:10;3.78;;;1.90;;
71303;SDS011;59091;47.446;19.148;2024-03-25T13:00:36;2.20;;;2.00;;
71303;SDS011;59091;47.446;19.148;2024-03-25T13:03:01;2.42;;;2.20;;
71303;SDS011;59091;47.446;19.148;2024-03-25T13:05:27;2.38;;;2.17;;
71303;SDS011;59091;47.446;19.148;2024-03-25T13:07:53;5.60;;;2.00;;
71303;SDS011;59091;47.446;19.148;2024-03-25T13:10:19;3.55;;;2.30;;
71303;SDS011;59091;47.446;19.148;2024-03-25T13:12:45;3.42;;;2.35;;
71303;SDS011;59091;47.446;19.148;2024-03-25T13:15:11;2.38;;;2.17;;
71303;SDS011;59091;47.446;19.148;2024-03-25T13:17:36;2.78;;;2.20;;
71303;SDS011;59091;47.446;19.148;2024-03-25T13:20:02;1.88;;;1.70;;
71303;SDS011;59091;47.446;19.148;2024-03-25T13:22:29;3.65;;;1.70;;
71303;SDS011;59091;47.446;19.148;2024-03-25T13:24:56;3.10;;;1.73;;
71303;SDS011;59091;47.446;19.148;2024-03-25T13:27:21;2.08;;;1.90;;
71303;SDS011;59091;47.446;19.148;2024-03-25T13:29:47;3.78;;;1.60;;
71303;SDS011;59091;47.446;19.148;2024-03-25T13:32:12;1.70;;;1.60;;
71303;SDS011;59091;47.446;19.148;2024-03-25T13:34:37;1.92;;;1.70;;
71303;SDS011;59091;47.446;19.148;2024-03-25T13:37:03;1.30;;;1.20;;
71303;SDS011;59091;47.446;19.148;2024-03-25T13:39:29;1.85;;;1.40;;
71303;SDS011;59091;47.446;19.148;2024-03-25T13:41:54;1.55;;;1.35;;
71303;SDS011;59091;47.446;19.148;2024-03-25T13:44:19;1.77;;;1.65;;
71303;SDS011;59091;47.446;19.148;2024-03-25T13:46:45;1.63;;;1.52;;
71303;SDS011;59091;47.446;19.148;2024-03-25T13:49:10;1.70;;;1.60;;
71303;SDS011;59091;47.446;19.148;2024-03-25T13:51:36;1.65;;;1.50;;
71303;SDS011;59091;47.446;19.148;2024-03-25T13:54:01;2.20;;;2.00;;
71303;SDS011;59091;47.446;19.148;2024-03-25T13:56:27;2.10;;;1.90;;
71303;SDS011;59091;47.446;19.148;2024-03-25T13:58:53;1.90;;;1.80;;
71303;SDS011;59091;47.446;19.148;2024-03-25T14:01:18;2.08;;;1.52;;
71303;SDS011;59091;47.446;19.148;2024-03-25T14:03:44;2.20;;;1.70;;
71303;SDS011;59091;47.446;19.148;2024-03-25T14:06:11;1.80;;;1.70;;
71303;SDS011;59091;47.446;19.148;2024-03-25T14:08:36;2.25;;;1.60;;
71303;SDS011;59091;47.446;19.148;2024-03-25T14:11:02;2.95;;;2.08;;
71303;SDS011;59091;47.446;19.148;2024-03-25T14:13:28;3.92;;;2.03;;
71303;SDS011;59091;47.446;19.148;2024-03-25T14:15:54;2.67;;;2.03;;
71303;SDS011;59091;47.446;19.148;2024-03-25T14:18:19;2.03;;;1.83;;
71303;SDS011;59091;47.446;19.148;2024-03-25T14:20:45;2.70;;;1.73;;
71303;SDS011;59091;47.446;19.148;2024-03-25T14:23:11;2.88;;;1.83;;
71303;SDS011;59091;47.446;19.148;2024-03-25T14:25:37;2.63;;;1.45;;
71303;SDS011;59091;47.446;19.148;2024-03-25T14:28:03;2.92;;;1.55;;
71303;SDS011;59091;47.446;19.148;2024-03-25T14:30:29;1.60;;;1.50;;
71303;SDS011;59091;47.446;19.148;2024-03-25T14:32:54;2.85;;;1.50;;